Time;durP1;ratioP1;P1;durP2;ratioP2;P2;SDS_P1;SDS_P2;PMS_P1;PMS_P2;Temp;Humidity;BMP_temperature;BMP_pressure;BME280_temperature;BME280_humidity;BME280_pressure;Samples;Min_cycle;Max_cycle;Signal;HPM_P1;HPM_P2
2021/05/16 00:00:42;;;;;;;10.75;5.80;;;384.30;2329.60;;;;;;5089727;28;20028;-64
2021/05/16 00:03:08;;;;;;;9.15;5.75;;;384.30;2329.60;;;;;;5090763;28;20024;-63
2021/05/16 00:05:34;;;;;;;8.77;6.10;;;384.40;2329.60;;;;;;5090783;28;20020;-64
2021/05/16 00:07:59;;;;;;;8.25;5.28;;;384.10;2329.60;;;;;;5090903;28;20381;-65
2021/05/16 00:10:27;;;;;;;9.27;6.15;;;384.10;2329.60;;;;;;5091052;28;20381;-63
2021/05/16 00:12:55;;;;;;;7.28;6.22;;;384.00;2329.60;;;;;;5090759;28;20477;-62
2021/05/16 00:15:22;;;;;;;6.70;6.07;;;359.20;2329.60;;;;;;5090760;28;20410;-63
2021/05/16 00:17:48;;;;;;;9.05;6.20;;;359.10;2329.60;;;;;;5090432;28;20040;-63
2021/05/16 00:20:18;;;;;;;10.35;6.25;;;359.10;2329.60;;;;;;5090498;28;20451;-63
2021/05/16 00:22:44;;;;;;;8.48;6.18;;;359.20;2329.60;;;;;;5090488;28;20560;-61
2021/05/16 00:25:13;;;;;;;8.45;6.70;;;359.20;2329.60;;;;;;5090014;28;20382;-65
2021/05/16 00:27:39;;;;;;;8.20;6.72;;;359.30;2329.60;;;;;;5090260;28;20365;-64
2021/05/16 00:30:08;;;;;;;148.20;94.30;;;384.00;2329.60;;;;;;5090603;28;20028;-64
2021/05/16 00:32:34;;;;;;;9.32;7.25;;;384.10;2329.60;;;;;;5090360;28;20024;-63
2021/05/16 00:35:00;;;;;;;10.77;5.55;;;384.10;2329.60;;;;;;5090243;28;20051;-63
2021/05/16 00:37:26;;;;;;;6.05;5.38;;;359.30;2329.60;;;;;;5090351;28;20422;-63
2021/05/16 00:39:52;;;;;;;7.57;5.60;;;359.10;2329.60;;;;;;5090583;28;20467;-63
2021/05/16 00:42:17;;;;;;;6.70;5.90;;;359.00;2329.60;;;;;;5089934;28;20474;-65
2021/05/16 00:45:24;;;;;;;15.75;6.50;;;359.00;2329.60;;;;;;5090544;28;20047;-64
2021/05/16 00:47:55;;;;;;;8.05;5.63;;;359.10;2329.60;;;;;;5067883;28;20055;-65
2021/05/16 00:50:25;;;;;;;10.10;5.70;;;359.10;2329.60;;;;;;5067853;28;20128;-62
2021/05/16 00:52:51;;;;;;;5.97;5.38;;;359.20;2329.60;;;;;;5067967;28;20028;-62
2021/05/16 00:55:18;;;;;;;7.85;5.70;;;359.10;2329.60;;;;;;5067727;28;20029;-64
2021/05/16 00:57:44;;;;;;;7.85;5.82;;;359.30;2329.60;;;;;;5067878;28;20083;-63
2021/05/16 01:00:22;;;;;;;5.90;5.30;;;359.30;2329.60;;;;;;5067653;28;20028;-64
2021/05/16 01:02:47;;;;;;;7.15;6.45;;;359.20;2329.60;;;;;;5067603;28;20032;-64
2021/05/16 01:05:15;;;;;;;7.15;5.45;;;359.30;2329.60;;;;;;5067925;28;20120;-64
2021/05/16 01:07:41;;;;;;;6.18;5.15;;;359.30;2329.60;;;;;;5067758;28;20063;-61
2021/05/16 01:10:09;;;;;;;7.57;5.35;;;384.00;2329.60;;;;;;5067612;28;20061;-65
2021/05/16 01:12:46;;;;;;;6.47;5.82;;;384.10;2329.60;;;;;;5067596;28;20035;-65
2021/05/16 01:15:16;;;;;;;7.45;6.05;;;384.00;2329.60;;;;;;5067622;28;20524;-64
2021/05/16 01:17:42;;;;;;;8.48;5.60;;;384.00;2329.60;;;;;;5067468;28;20510;-64
2021/05/16 01:20:11;;;;;;;5.20;4.55;;;384.00;2329.60;;;;;;5067431;28;20036;-65
2021/05/16 01:22:37;;;;;;;7.15;5.60;;;384.00;2329.60;;;;;;5072648;28;20036;-63
2021/05/16 01:25:05;;;;;;;6.53;4.88;;;384.00;2329.60;;;;;;5090000;28;20028;-62
2021/05/16 01:27:31;;;;;;;4.68;4.20;;;384.10;2329.60;;;;;;5089978;28;20028;-65
2021/05/16 01:29:56;;;;;;;10.23;5.30;;;384.20;2329.60;;;;;;5089808;28;20027;-63
2021/05/16 01:32:24;;;;;;;6.75;5.10;;;384.20;2329.60;;;;;;5089892;28;20132;-65
2021/05/16 01:34:50;;;;;;;6.15;5.03;;;384.10;2329.60;;;;;;5089720;28;20032;-64
2021/05/16 01:37:17;;;;;;;6.38;4.95;;;384.00;2329.60;;;;;;5093351;28;20109;-61
2021/05/16 01:39:48;;;;;;;5.80;5.20;;;384.20;2329.60;;;;;;5093561;28;20016;-63
2021/05/16 01:42:16;;;;;;;8.10;5.45;;;384.30;2329.60;;;;;;5093394;28;20031;-64
2021/05/16 01:44:42;;;;;;;5.95;5.35;;;384.30;2329.60;;;;;;5093833;28;20374;-62
2021/05/16 01:47:08;;;;;;;5.70;4.93;;;384.10;2329.60;;;;;;5093099;28;20071;-63
2021/05/16 01:49:48;;;;;;;8.05;5.68;;;384.10;2329.60;;;;;;5093494;28;20020;-64
2021/05/16 01:52:14;;;;;;;7.07;5.63;;;359.30;2329.60;;;;;;5093346;28;20028;-64
2021/05/16 01:54:40;;;;;;;8.82;6.00;;;359.20;2329.60;;;;;;5093149;28;20406;-62
2021/05/16 01:57:07;;;;;;;7.18;5.60;;;359.10;2329.60;;;;;;5093365;28;20043;-64
2021/05/16 01:59:35;;;;;;;6.88;5.47;;;359.00;2329.60;;;;;;5093435;28;20055;-61
2021/05/16 02:02:02;;;;;;;6.28;5.32;;;359.10;2329.60;;;;;;5093333;28;20047;-66
2021/05/16 02:04:30;;;;;;;8.52;5.40;;;359.20;2329.60;;;;;;5093028;28;20469;-64
2021/05/16 02:06:57;;;;;;;7.80;6.03;;;359.30;2329.60;;;;;;5093180;28;20125;-61
2021/05/16 02:09:24;;;;;;;10.07;5.40;;;359.30;2329.60;;;;;;5092933;28;20027;-63
2021/05/16 02:11:50;;;;;;;9.30;5.07;;;384.00;2329.60;;;;;;5092937;28;20024;-64
2021/05/16 02:14:26;;;;;;;13.85;12.88;;;384.00;2329.60;;;;;;5092965;28;20367;-63
2021/05/16 02:16:53;;;;;;;29.13;25.52;;;359.30;2329.60;;;;;;5092840;28;20131;-63
2021/05/16 02:19:19;;;;;;;5.38;4.80;;;384.00;2329.60;;;;;;5092638;28;20436;-64
2021/05/16 02:21:45;;;;;;;8.60;5.68;;;384.00;2329.60;;;;;;5092799;28;20024;-64
2021/05/16 02:24:11;;;;;;;6.10;5.38;;;359.30;2329.60;;;;;;5091571;28;20032;-61
2021/05/16 02:26:37;;;;;;;5.63;5.10;;;359.30;2329.60;;;;;;5092458;28;20024;-65
2021/05/16 02:29:04;;;;;;;6.45;5.03;;;359.30;2329.60;;;;;;5092752;28;20024;-62
2021/05/16 02:31:30;;;;;;;6.50;5.28;;;384.00;2329.60;;;;;;5092531;28;20109;-63
2021/05/16 02:33:56;;;;;;;5.53;4.13;;;384.10;2329.60;;;;;;5092539;28;20051;-63
2021/05/16 02:36:21;;;;;;;5.55;4.95;;;384.00;2329.60;;;;;;5092513;28;20121;-64
2021/05/16 02:38:47;;;;;;;6.40;5.15;;;384.10;2329.60;;;;;;5092273;28;20027;-62
2021/05/16 02:41:13;;;;;;;6.20;5.00;;;384.00;2329.60;;;;;;5092607;28;20035;-64
2021/05/16 02:43:38;;;;;;;8.63;6.05;;;384.10;2329.60;;;;;;5092196;28;20020;-66
2021/05/16 02:46:04;;;;;;;6.85;5.20;;;384.10;2329.60;;;;;;5091958;28;20044;-64
2021/05/16 02:48:30;;;;;;;6.55;4.90;;;384.00;2329.60;;;;;;5092261;28;20054;-61
2021/05/16 02:50:56;;;;;;;8.23;5.43;;;384.00;2329.60;;;;;;5092306;28;20024;-63
2021/05/16 02:53:23;;;;;;;7.13;4.80;;;384.00;2329.60;;;;;;5092362;28;20024;-64
2021/05/16 02:55:48;;;;;;;7.22;5.30;;;384.00;2329.60;;;;;;5092109;28;20024;-65
2021/05/16 02:58:14;;;;;;;6.80;4.75;;;384.00;2329.60;;;;;;5092222;28;20054;-63
2021/05/16 03:00:40;;;;;;;6.30;4.97;;;384.00;2329.60;;;;;;5092116;28;20074;-62
2021/05/16 03:03:06;;;;;;;6.40;4.78;;;359.20;2329.60;;;;;;5092093;28;20040;-65
2021/05/16 03:05:32;;;;;;;5.63;4.85;;;359.30;2329.60;;;;;;5092090;28;20028;-64
2021/05/16 03:07:57;;;;;;;6.82;5.30;;;359.20;2329.60;;;;;;5091947;28;20531;-63
2021/05/16 03:10:24;;;;;;;5.20;4.65;;;359.00;2329.60;;;;;;5091946;28;20553;-62
2021/05/16 03:12:50;;;;;;;5.18;4.68;;;359.10;2329.60;;;;;;5091725;28;20038;-64
2021/05/16 03:15:16;;;;;;;6.82;4.63;;;359.20;2329.60;;;;;;5091638;28;20405;-63
2021/05/16 03:17:42;;;;;;;5.90;5.05;;;359.30;2329.60;;;;;;5091568;28;20036;-64
2021/05/16 03:20:08;;;;;;;4.90;4.30;;;359.10;2329.60;;;;;;5091456;28;20031;-62
2021/05/16 03:22:34;;;;;;;7.53;5.22;;;359.10;2329.60;;;;;;5091720;28;20068;-62
2021/05/16 03:25:01;;;;;;;5.90;4.60;;;359.00;2329.60;;;;;;5091483;28;20098;-63
2021/05/16 03:27:27;;;;;;;5.20;4.13;;;359.10;2329.60;;;;;;5091228;28;20036;-64
2021/05/16 03:29:53;;;;;;;5.82;4.45;;;359.20;2329.60;;;;;;5091569;28;20122;-63
2021/05/16 03:32:19;;;;;;;14.20;5.07;;;359.30;2329.60;;;;;;5091452;28;20107;-63
2021/05/16 03:34:45;;;;;;;7.28;4.35;;;384.00;2329.60;;;;;;5091435;28;20048;-64
2021/05/16 03:37:10;;;;;;;5.78;3.90;;;384.00;2329.60;;;;;;5091045;28;20570;-64
2021/05/16 03:39:36;;;;;;;4.57;3.90;;;384.10;2329.60;;;;;;5089760;28;20119;-62
2021/05/16 03:42:03;;;;;;;5.65;3.58;;;384.10;2329.60;;;;;;5091448;28;20020;-62
2021/05/16 03:44:29;;;;;;;5.97;4.03;;;384.20;2329.60;;;;;;5090882;28;20564;-63
2021/05/16 03:46:55;;;;;;;6.18;4.05;;;384.20;2329.60;;;;;;5091046;28;20131;-64
2021/05/16 03:49:21;;;;;;;9.57;3.85;;;384.30;2329.60;;;;;;5091274;28;20139;-61
2021/05/16 03:51:46;;;;;;;7.25;4.35;;;384.20;2329.60;;;;;;5090475;28;20024;-64
2021/05/16 03:54:15;;;;;;;7.43;4.70;;;384.30;2329.60;;;;;;5091113;28;20071;-63
2021/05/16 03:56:41;;;;;;;7.80;4.18;;;384.30;2329.60;;;;;;5090821;28;20047;-64
2021/05/16 03:59:07;;;;;;;9.15;4.00;;;384.30;2329.60;;;;;;5089924;28;20051;-66
2021/05/16 04:01:33;;;;;;;6.60;4.35;;;384.30;2329.60;;;;;;5090651;28;20073;-62
2021/05/16 04:03:59;;;;;;;8.10;4.45;;;384.30;2329.60;;;;;;5091090;28;20024;-64
2021/05/16 04:06:25;;;;;;;6.53;3.63;;;384.10;2329.60;;;;;;5091241;28;20224;-62
2021/05/16 04:08:51;;;;;;;4.95;4.03;;;384.00;2329.60;;;;;;5091240;28;20073;-64
2021/05/16 04:11:17;;;;;;;6.57;4.30;;;384.00;2329.60;;;;;;5090586;28;20035;-62
2021/05/16 04:13:43;;;;;;;5.95;4.15;;;359.30;2329.60;;;;;;5091141;28;20038;-65
2021/05/16 04:16:09;;;;;;;5.00;3.97;;;359.30;2329.60;;;;;;5090749;28;20028;-65
2021/05/16 04:18:35;;;;;;;5.32;4.50;;;384.10;2329.60;;;;;;5090559;28;20036;-63
2021/05/16 04:21:03;;;;;;;5.03;4.40;;;384.10;2329.60;;;;;;5090899;28;20020;-63
2021/05/16 04:23:29;;;;;;;9.30;4.18;;;384.10;2329.60;;;;;;5090466;28;20036;-63
2021/05/16 04:25:54;;;;;;;5.50;4.25;;;384.20;2329.60;;;;;;5090355;28;20081;-64
2021/05/16 04:28:20;;;;;;;4.68;3.70;;;384.20;2329.60;;;;;;5090611;28;20524;-65
2021/05/16 04:30:46;;;;;;;7.72;4.10;;;384.30;2329.60;;;;;;5090294;28;20119;-62
2021/05/16 04:33:12;;;;;;;6.75;4.55;;;384.30;2329.60;;;;;;5090539;28;20051;-64
2021/05/16 04:35:37;;;;;;;6.20;4.30;;;384.40;2329.60;;;;;;5090205;28;20023;-63
2021/05/16 04:38:03;;;;;;;5.20;3.85;;;384.50;2329.60;;;;;;5090332;28;20044;-64
2021/05/16 04:40:29;;;;;;;5.53;4.18;;;384.40;2329.60;;;;;;5088990;28;20024;-63
2021/05/16 04:42:55;;;;;;;5.68;4.45;;;384.30;2329.60;;;;;;5090135;28;20082;-63
2021/05/16 04:45:21;;;;;;;6.55;4.20;;;384.30;2329.60;;;;;;5090373;28;20043;-63
2021/05/16 04:47:47;;;;;;;5.93;4.05;;;384.60;2329.60;;;;;;5090181;28;20122;-60
2021/05/16 04:50:15;;;;;;;4.40;3.60;;;384.50;2329.60;;;;;;5090391;28;20034;-65
2021/05/16 04:52:41;;;;;;;7.00;3.92;;;384.60;2329.60;;;;;;5090637;28;20407;-64
2021/05/16 04:55:07;;;;;;;6.60;4.07;;;384.80;2329.60;;;;;;5089914;28;20028;-65
2021/05/16 04:57:33;;;;;;;6.93;4.10;;;384.90;2329.60;;;;;;5090026;28;20047;-61
2021/05/16 05:00:00;;;;;;;5.28;4.07;;;384.80;2329.60;;;;;;5090125;28;20020;-62
2021/05/16 05:02:26;;;;;;;6.47;4.78;;;384.90;2329.60;;;;;;5090211;28;20055;-64
2021/05/16 05:04:52;;;;;;;5.28;4.43;;;384.90;2329.60;;;;;;5090238;28;20017;-64
2021/05/16 05:07:18;;;;;;;5.65;4.45;;;384.90;2329.60;;;;;;5090123;28;20028;-63
2021/05/16 05:09:43;;;;;;;9.20;7.35;;;384.90;2329.60;;;;;;5090262;28;20092;-64
2021/05/16 05:12:09;;;;;;;5.72;5.13;;;384.90;2329.60;;;;;;5093085;28;20024;-63
2021/05/16 05:14:35;;;;;;;5.78;4.80;;;409.70;2355.20;;;;;;5093655;28;20024;-64
2021/05/16 05:17:01;;;;;;;7.28;6.10;;;409.70;2355.20;;;;;;5094062;28;20072;-64
2021/05/16 05:19:26;;;;;;;14.85;5.80;;;409.60;2355.20;;;;;;5093918;28;20081;-63
2021/05/16 05:21:52;;;;;;;7.85;5.40;;;409.60;2355.20;;;;;;5094017;28;20031;-65
2021/05/16 05:24:18;;;;;;;5.97;4.95;;;409.70;2355.20;;;;;;5093767;28;20035;-63
2021/05/16 05:26:44;;;;;;;8.70;5.68;;;409.70;2355.20;;;;;;5093805;28;20031;-68
2021/05/16 05:29:09;;;;;;;6.43;5.05;;;409.90;2355.20;;;;;;5093614;28;20115;-65
2021/05/16 05:31:35;;;;;;;6.18;4.82;;;409.90;2355.20;;;;;;5093622;28;20044;-65
2021/05/16 05:34:01;;;;;;;8.57;7.68;;;409.90;2355.20;;;;;;5093797;28;20032;-66
2021/05/16 05:36:29;;;;;;;8.20;5.45;;;410.10;2355.20;;;;;;5092496;28;20028;-63
2021/05/16 05:38:56;;;;;;;5.35;4.70;;;410.20;2355.20;;;;;;5092320;28;20107;-64
2021/05/16 05:41:22;;;;;;;5.78;4.38;;;410.30;2355.20;;;;;;5093513;28;20174;-62
2021/05/16 05:43:48;;;;;;;9.45;4.80;;;410.50;2355.20;;;;;;5093287;28;20035;-66
2021/05/16 05:46:14;;;;;;;6.75;4.68;;;410.50;2355.20;;;;;;5093260;28;20396;-61
2021/05/16 05:48:39;;;;;;;6.55;4.45;;;435.20;2355.20;;;;;;5093359;28;20081;-64
2021/05/16 05:51:05;;;;;;;6.80;4.65;;;435.20;2355.20;;;;;;5093414;28;20257;-66
2021/05/16 05:53:31;;;;;;;5.65;4.38;;;410.50;2355.20;;;;;;5092499;28;20054;-66
2021/05/16 05:55:57;;;;;;;7.05;4.20;;;410.20;2355.20;;;;;;5093207;28;20060;-63
2021/05/16 05:58:23;;;;;;;7.25;4.10;;;410.10;2355.20;;;;;;5093306;28;20446;-65
2021/05/16 06:00:48;;;;;;;4.95;4.22;;;410.00;2355.20;;;;;;5093335;28;20418;-65
2021/05/16 06:03:14;;;;;;;5.97;4.65;;;410.00;2355.20;;;;;;5093200;28;20020;-61
2021/05/16 06:05:39;;;;;;;5.25;4.22;;;410.00;2355.20;;;;;;5093285;28;20023;-60
2021/05/16 06:08:05;;;;;;;7.30;5.10;;;410.00;2355.20;;;;;;5093165;28;20378;-62
2021/05/16 06:10:31;;;;;;;8.02;4.32;;;410.00;2355.20;;;;;;5093166;28;20035;-61
2021/05/16 06:12:57;;;;;;;5.45;4.68;;;410.10;2355.20;;;;;;5092678;28;20024;-60
2021/05/16 06:15:24;;;;;;;7.97;5.57;;;409.90;2355.20;;;;;;5092879;28;20042;-61
2021/05/16 06:17:52;;;;;;;8.77;4.95;;;410.00;2355.20;;;;;;5092887;28;20160;-60
2021/05/16 06:20:18;;;;;;;7.22;5.45;;;410.10;2355.20;;;;;;5092686;28;20477;-62
2021/05/16 06:22:44;;;;;;;6.78;5.10;;;410.10;2355.20;;;;;;5092459;28;20028;-61
2021/05/16 06:25:10;;;;;;;6.47;5.28;;;410.20;2355.20;;;;;;5092626;28;20373;-61
2021/05/16 06:27:36;;;;;;;7.60;5.80;;;410.20;2355.20;;;;;;5092527;28;20036;-63
2021/05/16 06:30:04;;;;;;;7.57;5.43;;;410.20;2355.20;;;;;;5092888;28;20529;-61
2021/05/16 06:32:30;;;;;;;6.38;5.28;;;410.20;2355.20;;;;;;5092530;28;20028;-61
2021/05/16 06:34:55;;;;;;;13.88;6.47;;;410.30;2355.20;;;;;;5092715;28;20028;-60
2021/05/16 06:37:21;;;;;;;7.88;5.07;;;435.20;2355.20;;;;;;5092495;28;20039;-62
2021/05/16 06:39:47;;;;;;;6.32;4.20;;;435.80;2355.20;;;;;;5092285;28;20016;-62
2021/05/16 06:42:12;;;;;;;6.97;5.40;;;461.40;2380.80;;;;;;5092329;28;20050;-61
2021/05/16 06:44:38;;;;;;;13.40;6.85;;;487.10;2304.00;;;;;;5092212;28;20074;-61
2021/05/16 06:47:04;;;;;;;9.07;6.07;;;512.70;2124.80;;;;;;5092115;28;20135;-62
2021/05/16 06:49:30;;;;;;;11.55;5.45;;;538.20;2022.40;;;;;;5092470;28;20431;-61
2021/05/16 06:51:55;;;;;;;5.63;4.60;;;563.20;1971.20;;;;;;5092466;28;20583;-62
2021/05/16 06:54:21;;;;;;;12.38;7.65;;;563.60;1843.20;;;;;;5092382;28;20385;-61
2021/05/16 06:56:47;;;;;;;7.63;5.38;;;563.60;1792.00;;;;;;5092033;28;20397;-61
2021/05/16 06:59:12;;;;;;;5.45;4.53;;;563.50;1868.80;;;;;;5091891;28;20047;-61
2021/05/16 07:01:39;;;;;;;8.68;5.10;;;563.60;1894.40;;;;;;5091860;28;20024;-61
2021/05/16 07:04:05;;;;;;;6.65;4.38;;;563.40;1920.00;;;;;;5092251;28;20028;-61
2021/05/16 07:06:32;;;;;;;6.53;3.90;;;538.50;1920.00;;;;;;5091703;28;20051;-61
2021/05/16 07:08:57;;;;;;;6.65;4.85;;;538.20;1971.20;;;;;;5087221;28;20054;-61
2021/05/16 07:11:23;;;;;;;8.27;5.07;;;537.90;2048.00;;;;;;5090774;28;20035;-62
2021/05/16 07:13:49;;;;;;;4.53;3.80;;;537.60;2073.60;;;;;;5089525;28;20032;-61
2021/05/16 07:16:15;;;;;;;7.20;4.30;;;512.70;2048.00;;;;;;5090959;28;20036;-62
2021/05/16 07:18:41;;;;;;;6.22;4.10;;;512.30;2073.60;;;;;;5091119;28;20043;-62
2021/05/16 07:21:07;;;;;;;9.02;5.10;;;487.30;2124.80;;;;;;5088324;28;20028;-61
2021/05/16 07:23:32;;;;;;;6.05;4.70;;;487.00;2176.00;;;;;;5091191;28;20072;-62
2021/05/16 07:25:59;;;;;;;7.28;4.70;;;486.70;2176.00;;;;;;5091605;28;20039;-61
2021/05/16 07:28:26;;;;;;;5.85;4.40;;;486.60;2227.20;;;;;;5090950;28;20035;-61
2021/05/16 07:30:51;;;;;;;6.03;4.63;;;461.70;2278.40;;;;;;5091471;28;20031;-61
2021/05/16 07:33:17;;;;;;;12.60;5.05;;;461.50;2329.60;;;;;;5090019;28;20027;-61
2021/05/16 07:35:43;;;;;;;6.85;4.40;;;461.60;2304.00;;;;;;5090388;28;20108;-61
2021/05/16 07:38:09;;;;;;;4.75;3.75;;;461.70;2304.00;;;;;;5090596;28;20506;-61
2021/05/16 07:40:37;;;;;;;5.88;3.78;;;486.40;2252.80;;;;;;5091357;28;20020;-61
2021/05/16 07:43:03;;;;;;;5.40;3.65;;;486.80;2201.60;;;;;;5090040;28;20454;-62
2021/05/16 07:45:29;;;;;;;7.57;4.20;;;512.10;2150.40;;;;;;5090818;28;20032;-61
2021/05/16 07:47:55;;;;;;;5.65;4.15;;;537.80;2073.60;;;;;;5090899;28;20393;-62
2021/05/16 07:50:23;;;;;;;5.80;3.67;;;538.50;1945.60;;;;;;5091113;28;20078;-62
2021/05/16 07:52:49;;;;;;;7.18;3.97;;;563.60;1868.80;;;;;;5091088;28;20028;-61
2021/05/16 07:55:15;;;;;;;4.25;3.85;;;563.70;1817.60;;;;;;5091073;28;20035;-62
2021/05/16 07:57:42;;;;;;;6.32;3.95;;;564.00;1843.20;;;;;;5089033;28;20032;-64
2021/05/16 08:00:12;;;;;;;5.20;3.28;;;588.90;1766.40;;;;;;5088539;28;20256;-62
2021/05/16 08:02:41;;;;;;;7.05;3.92;;;589.60;1664.00;;;;;;5089430;28;20457;-61
2021/05/16 08:05:08;;;;;;;7.32;3.72;;;614.40;1612.80;;;;;;5090866;28;20107;-62
2021/05/16 08:07:34;;;;;;;5.22;3.55;;;615.10;1536.00;;;;;;5090742;28;20492;-62
2021/05/16 08:10:00;;;;;;;12.10;4.93;;;640.50;1459.20;;;;;;5090513;28;20032;-64
2021/05/16 08:12:25;;;;;;;6.00;5.40;;;640.80;1408.00;;;;;;5089097;28;20020;-62
2021/05/16 08:14:51;;;;;;;4.85;4.35;;;666.40;1408.00;;;;;;5086544;28;20036;-64
2021/05/16 08:17:17;;;;;;;5.35;3.90;;;717.70;1254.40;;;;;;5087985;28;20040;-62
2021/05/16 08:19:43;;;;;;;6.88;3.47;;;742.90;1177.60;;;;;;5090757;28;20462;-62
2021/05/16 08:22:10;;;;;;;5.95;4.32;;;717.30;1228.80;;;;;;5090368;28;20027;-61
2021/05/16 08:24:37;;;;;;;7.95;5.18;;;692.00;1228.80;;;;;;5089964;28;20134;-62
2021/05/16 08:27:06;;;;;;;3.83;2.85;;;666.30;1305.60;;;;;;5090645;28;20066;-61
2021/05/16 08:29:35;;;;;;;3.30;2.28;;;665.90;1280.00;;;;;;5090377;28;20027;-59
2021/05/16 08:32:02;;;;;;;5.22;2.63;;;640.10;1228.80;;;;;;5090504;28;20035;-58
2021/05/16 08:34:27;;;;;;;4.47;2.42;;;614.60;1280.00;;;;;;5090447;28;20440;-58
2021/05/16 08:36:53;;;;;;;5.13;2.67;;;589.70;1305.60;;;;;;5090399;28;20062;-58
2021/05/16 08:39:19;;;;;;;3.55;1.95;;;614.40;1331.20;;;;;;5090009;28;20047;-59
2021/05/16 08:41:44;;;;;;;3.47;1.92;;;589.50;1305.60;;;;;;5090411;28;20069;-59
2021/05/16 08:44:11;;;;;;;5.07;1.98;;;589.30;1254.40;;;;;;5089799;28;20039;-59
2021/05/16 08:46:37;;;;;;;4.50;2.38;;;589.00;1280.00;;;;;;5090016;28;20040;-60
2021/05/16 08:49:02;;;;;;;3.92;1.40;;;589.30;1305.60;;;;;;5090452;28;20028;-59
2021/05/16 08:51:28;;;;;;;3.05;1.83;;;588.80;1305.60;;;;;;5090165;28;20384;-58
2021/05/16 08:53:54;;;;;;;2.83;1.60;;;564.10;1280.00;;;;;;5090186;28;20024;-58
2021/05/16 08:56:20;;;;;;;6.25;2.08;;;564.10;1305.60;;;;;;5089958;28;20058;-59
2021/05/16 08:58:45;;;;;;;5.95;2.30;;;588.80;1280.00;;;;;;5090540;28;20378;-58
2021/05/16 09:01:20;;;;;;;6.50;2.30;;;589.20;1356.80;;;;;;5091018;28;20028;-58
2021/05/16 09:03:46;;;;;;;7.38;2.67;;;589.60;1331.20;;;;;;5087277;28;20071;-59
2021/05/16 09:06:12;;;;;;;3.95;2.20;;;614.50;1203.20;;;;;;5090328;28;20470;-59
2021/05/16 09:08:38;;;;;;;11.45;7.53;;;614.80;1177.60;;;;;;5088384;28;20472;-58
2021/05/16 09:11:05;;;;;;;9.60;6.22;;;614.90;1203.20;;;;;;5089552;28;20016;-61
2021/05/16 09:13:44;;;;;;;4.63;2.70;;;614.80;1177.60;;;;;;5088203;28;20035;-65
2021/05/16 09:16:15;;;;;;;3.47;2.40;;;614.70;1203.20;;;;;;5088138;28;20024;-67
2021/05/16 09:18:42;;;;;;;9.43;2.58;;;589.60;1228.80;;;;;;5088699;28;20040;-64
2021/05/16 09:21:29;;;;;;;4.57;3.15;;;589.60;1280.00;;;;;;5088094;28;20020;-62
2021/05/16 09:24:04;;;;;;;5.72;3.17;;;589.00;1408.00;;;;;;5085792;28;20393;-65
2021/05/16 09:26:33;;;;;;;7.13;3.28;;;563.70;1510.40;;;;;;5083189;28;20043;-59
2021/05/16 09:29:28;;;;;;;9.18;3.33;;;563.60;1536.00;;;;;;5087921;28;20028;-62
2021/05/16 09:31:56;;;;;;;4.65;3.10;;;563.60;1510.40;;;;;;5088227;28;20533;-66
2021/05/16 09:34:22;;;;;;;6.88;3.47;;;563.80;1510.40;;;;;;5088384;28;20051;-63
2021/05/16 09:36:49;;;;;;;4.63;3.08;;;563.80;1536.00;;;;;;5087865;28;20378;-60
2021/05/16 09:39:18;;;;;;;8.10;3.20;;;563.70;1510.40;;;;;;5087583;28;20032;-61
2021/05/16 09:41:59;;;;;;;5.72;3.72;;;563.80;1536.00;;;;;;5087634;28;20055;-65
2021/05/16 09:44:51;;;;;;;7.50;3.30;;;564.00;1510.40;;;;;;5087535;28;20034;-60
2021/05/16 09:47:28;;;;;;;4.43;3.00;;;589.30;1459.20;;;;;;5084981;28;20127;-63
2021/05/16 09:49:59;;;;;;;4.03;2.55;;;589.50;1484.80;;;;;;5086189;28;20565;-63
2021/05/16 09:52:32;;;;;;;6.78;2.70;;;614.50;1433.60;;;;;;5090142;28;20108;-65
2021/05/16 09:55:02;;;;;;;;;;;589.60;1433.60;;;;;;5090578;28;20028;-61
2021/05/16 09:57:49;;;;;;;5.10;2.90;;;614.50;1433.60;;;;;;5092514;28;19912;-63
2021/05/16 10:00:17;;;;;;;4.57;3.10;;;589.40;1433.60;;;;;;5092373;28;20032;-62
2021/05/16 10:02:43;;;;;;;8.57;3.45;;;589.70;1459.20;;;;;;5093214;28;20034;-63
2021/05/16 10:05:11;;;;;;;5.53;3.28;;;589.50;1536.00;;;;;;5092585;28;20439;-59
2021/05/16 10:07:38;;;;;;;9.18;3.67;;;588.90;1587.20;;;;;;5092685;28;20522;-60
2021/05/16 10:10:05;;;;;;;4.20;2.50;;;563.70;1612.80;;;;;;5093077;28;20375;-64
2021/05/16 10:12:30;;;;;;;10.45;4.65;;;589.00;1561.60;;;;;;5092863;28;20028;-60
2021/05/16 10:15:02;;;;;;;7.97;4.78;;;589.00;1536.00;;;;;;5092725;28;20024;-60
2021/05/16 10:17:32;;;;;;;6.28;4.10;;;588.80;1612.80;;;;;;5092780;28;20162;-60
2021/05/16 10:20:00;;;;;;;4.57;2.80;;;589.60;1587.20;;;;;;5092805;28;20031;-60
2021/05/16 10:22:27;;;;;;;5.15;3.05;;;589.70;1510.40;;;;;;5092712;28;20111;-62
2021/05/16 10:24:56;;;;;;;4.82;2.90;;;589.50;1484.80;;;;;;5092714;28;20028;-59
2021/05/16 10:27:30;;;;;;;5.75;4.07;;;614.50;1510.40;;;;;;5092798;28;20039;-61
2021/05/16 10:29:58;;;;;;;5.43;3.60;;;589.40;1561.60;;;;;;5092562;28;20074;-59
2021/05/16 10:32:35;;;;;;;6.80;4.68;;;589.50;1536.00;;;;;;5092619;28;20032;-58
2021/05/16 10:35:04;;;;;;;6.28;3.80;;;589.30;1536.00;;;;;;5092582;28;20039;-62
2021/05/16 10:37:36;;;;;;;3.50;2.50;;;614.50;1459.20;;;;;;5092511;28;20024;-60
2021/05/16 10:40:03;;;;;;;4.65;3.13;;;589.50;1459.20;;;;;;5092544;28;20019;-65
2021/05/16 10:42:35;;;;;;;5.35;3.50;;;614.50;1536.00;;;;;;5092660;28;20028;-61
2021/05/16 10:45:03;;;;;;;6.60;3.58;;;589.60;1459.20;;;;;;5092500;28;20024;-63
2021/05/16 10:47:45;;;;;;;5.32;2.70;;;614.40;1484.80;;;;;;5092227;28;20059;-62
2021/05/16 10:50:23;;;;;;;6.13;3.88;;;615.00;1433.60;;;;;;5092185;28;20135;-61
2021/05/16 10:52:58;;;;;;;10.57;4.30;;;614.70;1433.60;;;;;;5092171;28;20028;-65
2021/05/16 10:55:29;;;;;;;6.93;3.03;;;614.70;1433.60;;;;;;5092385;28;20115;-63
2021/05/16 10:57:54;;;;;;;5.28;2.97;;;614.70;1356.80;;;;;;5092310;28;20115;-65
2021/05/16 11:00:24;;;;;;;4.20;2.47;;;589.50;1382.40;;;;;;5091864;28;20422;-64
2021/05/16 11:03:10;;;;;;;5.00;2.80;;;589.70;1408.00;;;;;;5091951;28;20072;-63
2021/05/16 11:05:50;;;;;;;5.15;3.58;;;615.00;1408.00;;;;;;5092061;28;20028;-63
2021/05/16 11:08:16;;;;;;;6.20;3.60;;;614.70;1433.60;;;;;;5091983;28;20024;-66
2021/05/16 11:10:43;;;;;;;6.22;3.85;;;614.60;1433.60;;;;;;5092179;28;20115;-61
2021/05/16 11:13:18;;;;;;;7.20;3.85;;;589.60;1433.60;;;;;;5091157;28;20028;-64
2021/05/16 11:15:46;;;;;;;4.30;3.15;;;589.00;1484.80;;;;;;5091868;28;20028;-64
2021/05/16 11:18:19;;;;;;;7.07;2.97;;;589.30;1484.80;;;;;;5091853;28;20394;-65
2021/05/16 11:21:03;;;;;;;4.90;3.13;;;589.20;1536.00;;;;;;5091629;28;20028;-64
2021/05/16 11:23:30;;;;;;;5.15;3.47;;;614.50;1459.20;;;;;;5091536;28;20505;-63
2021/05/16 11:25:57;;;;;;;6.85;3.15;;;614.80;1510.40;;;;;;5091520;28;20024;-61
2021/05/16 11:28:24;;;;;;;4.82;2.80;;;614.70;1408.00;;;;;;5091679;28;20485;-65
2021/05/16 11:30:50;;;;;;;6.80;2.85;;;589.70;1408.00;;;;;;5091280;28;20422;-62
2021/05/16 11:33:29;;;;;;;17.52;4.15;;;614.90;1356.80;;;;;;5090934;28;20031;-60
2021/05/16 11:35:55;;;;;;;4.97;3.10;;;614.50;1408.00;;;;;;5091532;28;20042;-62
2021/05/16 11:38:26;;;;;;;4.10;3.10;;;589.50;1433.60;;;;;;5091101;28;20040;-65
2021/05/16 11:40:53;;;;;;;8.65;3.67;;;589.70;1433.60;;;;;;5091329;28;20020;-65
2021/05/16 11:43:27;;;;;;;5.32;3.63;;;614.70;1433.60;;;;;;5091199;28;20024;-65
2021/05/16 11:45:53;;;;;;;5.45;2.97;;;614.80;1433.60;;;;;;5091016;28;20121;-64
2021/05/16 11:48:31;;;;;;;4.18;3.00;;;614.70;1382.40;;;;;;5091152;28;20032;-64
2021/05/16 11:51:08;;;;;;;5.38;3.35;;;614.80;1331.20;;;;;;5091014;28;20040;-61
2021/05/16 11:53:35;;;;;;;4.25;2.78;;;615.10;1433.60;;;;;;5090963;28;20492;-66
2021/05/16 11:56:21;;;;;;;4.80;2.45;;;615.30;1382.40;;;;;;5090897;28;20028;-59
2021/05/16 11:58:53;;;;;;;5.00;2.88;;;615.30;1356.80;;;;;;5090814;28;20040;-60
2021/05/16 12:01:19;;;;;;;5.30;3.30;;;615.30;1331.20;;;;;;5090613;28;20024;-61
2021/05/16 12:03:59;;;;;;;5.45;3.58;;;615.00;1408.00;;;;;;5090784;28;20473;-65
2021/05/16 12:06:26;;;;;;;13.05;4.85;;;614.60;1459.20;;;;;;5090449;28;20524;-63
2021/05/16 12:09:09;;;;;;;4.82;4.13;;;589.40;1484.80;;;;;;5090852;28;20036;-66
2021/05/16 12:11:39;;;;;;;7.70;3.78;;;589.10;1536.00;;;;;;5090879;28;20012;-64
2021/05/16 12:14:10;;;;;;;6.13;3.45;;;588.90;1536.00;;;;;;5090690;28;20024;-61
2021/05/16 12:16:38;;;;;;;8.25;3.55;;;564.10;1561.60;;;;;;5090506;28;20115;-63
2021/05/16 12:19:04;;;;;;;7.40;3.42;;;564.00;1536.00;;;;;;5090454;28;20040;-65